Terminal Aerodrome Forecast
Issued by NWS

Home | Current Version | Previous Version | Text Only | Print | Product List | Glossary On
Versions: 1 2 3 4 5 6 7 8 9 10 11 12
799
FTUS45 KRIW 130536
TAFWRL
TAF
KWRL 130536Z 1306/1406 VRB04KT P6SM FEW120 BKN200
     FM131400 VRB05KT P6SM VCSH BKN070
     FM132000 33017G25KT P6SM SCT070
     FM140130 32007KT P6SM FEW110
     FM140500 VRB05KT P6SM SCT200=

USA.gov is the U.S. government's official web portal to all federal, state and local government web resources and services.